Time;durP1;ratioP1;P1;durP2;ratioP2;P2;SDS_P1;SDS_P2;PMS_P1;PMS_P2;Temp;Humidity;BMP_temperature;BMP_pressure;BME280_temperature;BME280_humidity;BME280_pressure;Samples;Min_cycle;Max_cycle;Signal;HPM_P1;HPM_P2
2020/12/04 00:00:13;;;;;;;51.67;23.27;;;-1.40;93.20;;;;;;5045811;28;20148;-74
2020/12/04 00:02:39;;;;;;;46.75;23.55;;;-1.40;94.20;;;;;;5030388;28;20021;-74
2020/12/04 00:05:06;;;;;;;58.53;23.70;;;-1.30;93.50;;;;;;5030290;28;20083;-74
2020/12/04 00:07:32;;;;;;;47.08;22.48;;;-1.50;92.90;;;;;;5030502;28;20100;-74
2020/12/04 00:09:58;;;;;;;48.67;22.80;;;-1.60;92.50;;;;;;5030430;28;20101;-74
2020/12/04 00:12:24;;;;;;;55.97;22.63;;;-1.70;93.30;;;;;;5030713;28;20025;-74
2020/12/04 00:14:50;;;;;;;45.40;22.85;;;-1.70;93.10;;;;;;5030457;28;20370;-74
2020/12/04 00:17:16;;;;;;;51.20;22.15;;;-1.80;92.50;;;;;;5030405;28;20029;-74
2020/12/04 00:19:41;;;;;;;48.80;22.98;;;-1.90;93.20;;;;;;5029299;28;20048;-74
2020/12/04 00:22:07;;;;;;;53.05;21.70;;;-1.80;93.50;;;;;;5034242;28;20032;-74
2020/12/04 00:24:33;;;;;;;45.90;21.27;;;-2.00;92.30;;;;;;5032749;28;20026;-74
2020/12/04 00:26:59;;;;;;;53.00;23.40;;;-2.10;93.20;;;;;;5049525;28;20052;-74
2020/12/04 00:29:29;;;;;;;43.97;22.17;;;-2.20;92.80;;;;;;5032732;28;20520;-74
2020/12/04 00:31:58;;;;;;;47.13;21.67;;;-2.20;93.70;;;;;;5033936;28;20392;-74
2020/12/04 00:34:24;;;;;;;44.92;21.02;;;-2.20;94.50;;;;;;5048620;28;20033;-74
2020/12/04 00:36:51;;;;;;;46.97;21.40;;;-2.20;93.50;;;;;;5033892;28;20493;-74
2020/12/04 00:39:19;;;;;;;50.47;21.38;;;-2.30;93.50;;;;;;5033751;28;20110;-74
2020/12/04 00:41:45;;;;;;;42.90;20.38;;;-2.40;93.80;;;;;;5032631;28;20021;-74
2020/12/04 00:44:11;;;;;;;39.80;18.08;;;-2.30;93.60;;;;;;5033492;28;20120;-74
2020/12/04 00:46:37;;;;;;;41.88;19.17;;;-2.10;93.60;;;;;;5048992;28;20553;-74
2020/12/04 00:49:04;;;;;;;45.47;18.98;;;-2.00;94.10;;;;;;5048962;28;20478;-74
2020/12/04 00:51:29;;;;;;;39.15;19.20;;;-1.90;94.90;;;;;;5033376;28;20029;-74
2020/12/04 00:53:55;;;;;;;36.58;17.23;;;-1.70;95.00;;;;;;5033815;28;20036;-74
2020/12/04 00:56:21;;;;;;;38.80;19.65;;;-1.40;95.30;;;;;;5033267;28;20030;-74
2020/12/04 00:58:50;;;;;;;39.33;19.80;;;-1.40;93.30;;;;;;5031740;28;20382;-74
2020/12/04 01:01:16;;;;;;;42.58;20.92;;;-1.50;93.50;;;;;;5031869;28;20032;-74
2020/12/04 01:03:42;;;;;;;46.10;21.45;;;-1.40;92.70;;;;;;5033126;28;20021;-74
2020/12/04 01:06:12;;;;;;;43.60;20.85;;;-1.30;91.80;;;;;;5033148;28;20029;-74
2020/12/04 01:08:38;;;;;;;45.92;20.48;;;-1.10;91.70;;;;;;5031950;28;20047;-74
2020/12/04 01:11:03;;;;;;;42.95;20.80;;;-1.00;90.30;;;;;;5033169;28;20017;-74
2020/12/04 01:13:30;;;;;;;40.95;21.23;;;-1.10;89.90;;;;;;5033191;28;20064;-74
2020/12/04 01:15:55;;;;;;;45.78;19.00;;;-1.30;90.60;;;;;;5032950;28;20018;-74
2020/12/04 01:18:21;;;;;;;46.75;22.13;;;-1.50;90.60;;;;;;5033085;28;20040;-74
2020/12/04 01:20:47;;;;;;;44.53;20.40;;;-1.60;91.30;;;;;;5032737;28;20026;-74
2020/12/04 01:23:12;;;;;;;41.88;20.55;;;-1.60;91.20;;;;;;5031595;28;20529;-74
2020/12/04 01:25:38;;;;;;;43.17;19.08;;;-1.70;91.40;;;;;;5031540;28;20103;-74
2020/12/04 01:28:04;;;;;;;46.40;19.30;;;-1.80;91.60;;;;;;5032871;28;20025;-74
2020/12/04 01:30:30;;;;;;;48.17;20.65;;;-1.70;92.00;;;;;;5032487;28;20025;-74
2020/12/04 01:32:55;;;;;;;50.28;21.83;;;-1.80;91.70;;;;;;5031821;28;20060;-74
2020/12/04 01:35:21;;;;;;;43.63;19.83;;;-1.80;92.10;;;;;;5047964;28;20060;-74
2020/12/04 01:37:47;;;;;;;43.47;20.25;;;-1.80;91.70;;;;;;5032934;28;20022;-74
2020/12/04 01:40:12;;;;;;;42.53;19.27;;;-1.80;92.50;;;;;;5031140;28;20026;-74
2020/12/04 01:42:38;;;;;;;40.08;18.08;;;-1.60;92.20;;;;;;5032542;28;20029;-74
2020/12/04 01:45:05;;;;;;;38.35;19.08;;;-1.60;91.50;;;;;;5031102;28;20481;-74
2020/12/04 01:47:30;;;;;;;35.08;17.48;;;-1.50;91.90;;;;;;5032584;28;20033;-74
2020/12/04 01:49:56;;;;;;;39.22;17.52;;;-1.50;91.50;;;;;;5031164;28;20381;-74
2020/12/04 01:52:25;;;;;;;36.28;17.17;;;-1.60;91.30;;;;;;5032450;28;20017;-74
2020/12/04 01:54:51;;;;;;;36.97;17.00;;;-1.90;91.90;;;;;;5032318;28;20499;-74
2020/12/04 01:57:22;;;;;;;36.40;17.20;;;-1.70;92.50;;;;;;5032118;28;20100;-74
2020/12/04 01:59:48;;;;;;;36.05;17.23;;;-1.60;91.90;;;;;;5031915;28;20250;-74
2020/12/04 02:02:19;;;;;;;34.22;17.23;;;-1.70;92.50;;;;;;5031033;28;20033;-74
2020/12/04 02:04:47;;;;;;;33.22;15.57;;;-1.60;92.70;;;;;;5030702;28;20026;-74
2020/12/04 02:07:19;;;;;;;27.50;13.77;;;-1.70;93.20;;;;;;5014575;28;20116;-74
2020/12/04 02:09:50;;;;;;;29.38;14.30;;;-1.70;94.80;;;;;;5032211;28;20014;-74
2020/12/04 02:12:18;;;;;;;27.52;13.43;;;-1.80;95.50;;;;;;5032013;28;20084;-74
2020/12/04 02:14:47;;;;;;;27.13;12.85;;;-1.80;96.60;;;;;;5030674;28;20026;-74
2020/12/04 02:17:13;;;;;;;25.98;12.80;;;-1.70;96.40;;;;;;5031970;28;20017;-74
2020/12/04 02:19:41;;;;;;;27.35;12.95;;;-1.50;97.00;;;;;;5031734;28;20105;-74
2020/12/04 02:22:07;;;;;;;27.60;13.40;;;-1.40;96.10;;;;;;5046942;28;20511;-74
2020/12/04 02:24:33;;;;;;;23.48;11.55;;;-1.20;95.30;;;;;;5031501;28;20018;-74
2020/12/04 02:26:59;;;;;;;21.60;10.38;;;-1.30;95.10;;;;;;5031465;28;20556;-74
2020/12/04 02:29:26;;;;;;;22.13;11.48;;;-1.40;96.20;;;;;;5031576;28;20052;-74
2020/12/04 02:31:52;;;;;;;20.45;10.88;;;-1.40;96.40;;;;;;5030240;28;20033;-74
2020/12/04 02:34:18;;;;;;;22.75;11.20;;;-1.40;96.80;;;;;;5030242;28;20037;-74
2020/12/04 02:36:43;;;;;;;21.38;10.98;;;-1.30;97.20;;;;;;5030252;28;20392;-74
2020/12/04 02:39:09;;;;;;;24.67;9.88;;;-1.20;96.40;;;;;;5046767;28;20032;-74
2020/12/04 02:41:35;;;;;;;23.70;12.38;;;-1.10;94.70;;;;;;5031445;28;20048;-74
2020/12/04 02:44:01;;;;;;;23.15;12.75;;;-1.30;94.40;;;;;;5030160;28;20056;-74
2020/12/04 02:46:27;;;;;;;24.30;11.77;;;-1.30;94.20;;;;;;5031306;28;20087;-74
2020/12/04 02:48:54;;;;;;;28.02;11.77;;;-1.40;93.50;;;;;;5031392;28;20029;-74
2020/12/04 02:51:19;;;;;;;34.63;11.50;;;-1.50;93.90;;;;;;5031279;28;20025;-74
2020/12/04 02:53:45;;;;;;;23.98;11.82;;;-1.50;94.80;;;;;;5013816;28;20021;-74
2020/12/04 02:56:16;;;;;;;23.75;11.07;;;-1.50;95.20;;;;;;5029734;28;20024;-74
2020/12/04 02:58:42;;;;;;;21.65;10.90;;;-1.40;94.30;;;;;;5030966;28;20030;-74
2020/12/04 03:01:08;;;;;;;22.77;11.57;;;-1.40;94.40;;;;;;5029810;28;20485;-74
2020/12/04 03:03:33;;;;;;;18.40;9.90;;;-1.40;94.10;;;;;;5031301;28;20465;-74
2020/12/04 03:05:59;;;;;;;12.95;7.35;;;-1.50;94.40;;;;;;5029588;28;20036;-74
2020/12/04 03:08:25;;;;;;;17.52;9.10;;;-1.50;95.60;;;;;;5029824;28;20028;-74
2020/12/04 03:10:52;;;;;;;18.50;8.63;;;-1.40;96.30;;;;;;5030907;28;20068;-74
2020/12/04 03:13:18;;;;;;;15.20;8.65;;;-1.30;96.50;;;;;;5031005;28;20461;-74
2020/12/04 03:15:43;;;;;;;16.08;8.93;;;-1.20;95.80;;;;;;5030724;28;20053;-74
2020/12/04 03:18:09;;;;;;;14.05;8.00;;;-1.20;96.30;;;;;;5013270;28;20075;-74
2020/12/04 03:20:35;;;;;;;20.50;8.40;;;-1.20;95.80;;;;;;5030849;28;20032;-74
2020/12/04 03:23:00;;;;;;;18.02;8.98;;;-1.10;96.00;;;;;;5030876;28;20028;-74
2020/12/04 03:25:26;;;;;;;14.13;7.10;;;-1.10;96.10;;;;;;5030735;28;20489;-74
2020/12/04 03:27:52;;;;;;;12.18;5.78;;;-1.10;96.70;;;;;;5030934;28;20063;-74
2020/12/04 03:30:18;;;;;;;8.32;4.97;;;-0.90;97.90;;;;;;5030752;28;20033;-74
2020/12/04 03:32:43;;;;;;;11.48;5.68;;;-0.80;97.80;;;;;;5029658;28;20045;-74
2020/12/04 03:35:09;;;;;;;11.45;6.72;;;-0.70;96.60;;;;;;5030771;28;20390;-74
2020/12/04 03:37:35;;;;;;;15.70;8.15;;;-0.70;95.90;;;;;;5029507;28;20022;-74
2020/12/04 03:40:00;;;;;;;13.25;7.90;;;-0.50;96.60;;;;;;5029573;28;20096;-74
2020/12/04 03:42:26;;;;;;;13.82;7.57;;;-0.60;95.20;;;;;;5030833;28;20116;-74
2020/12/04 03:44:52;;;;;;;16.23;7.93;;;-0.50;94.70;;;;;;5029511;28;20025;-74
2020/12/04 03:47:17;;;;;;;16.95;8.82;;;-0.60;94.30;;;;;;5029931;28;20022;-74
2020/12/04 03:49:43;;;;;;;18.02;8.15;;;-0.60;94.50;;;;;;5029572;28;20041;-75
2020/12/04 03:52:09;;;;;;;17.90;8.55;;;-0.50;94.50;;;;;;5029930;28;20444;-74
2020/12/04 03:54:35;;;;;;;14.60;7.43;;;-0.60;93.60;;;;;;5029715;28;20025;-74
2020/12/04 03:57:00;;;;;;;12.45;7.05;;;-0.60;93.70;;;;;;5033611;28;20022;-74
2020/12/04 03:59:26;;;;;;;17.83;7.82;;;-0.80;94.00;;;;;;5016574;28;20028;-74
2020/12/04 04:01:52;;;;;;;22.17;7.57;;;-0.80;95.00;;;;;;5034420;28;20025;-76
2020/12/04 04:04:18;;;;;;;14.07;7.93;;;-0.70;95.20;;;;;;5033198;28;20503;-76
2020/12/04 04:06:43;;;;;;;12.82;6.90;;;-0.70;94.40;;;;;;5033196;28;20148;-76
2020/12/04 04:09:09;;;;;;;9.45;5.68;;;-0.70;95.30;;;;;;5034211;28;20381;-74
2020/12/04 04:11:35;;;;;;;15.13;6.78;;;-0.60;95.30;;;;;;5033949;28;20029;-74
2020/12/04 04:14:00;;;;;;;13.73;6.78;;;-0.70;95.00;;;;;;5034194;28;20477;-74
2020/12/04 04:16:26;;;;;;;9.98;5.47;;;-0.50;95.30;;;;;;5034073;28;20076;-74
2020/12/04 04:18:52;;;;;;;10.23;5.40;;;-0.50;95.50;;;;;;5034287;28;20060;-74
2020/12/04 04:21:17;;;;;;;11.95;5.40;;;-0.50;95.30;;;;;;5034257;28;20026;-74
2020/12/04 04:23:43;;;;;;;11.05;5.53;;;-0.70;95.80;;;;;;5034311;28;20543;-74
2020/12/04 04:26:09;;;;;;;11.23;5.63;;;-0.50;97.10;;;;;;5032825;28;20029;-74
2020/12/04 04:28:35;;;;;;;16.23;5.18;;;-0.50;96.90;;;;;;5033010;28;20437;-74
2020/12/04 04:31:00;;;;;;;9.15;5.05;;;-0.40;96.00;;;;;;5033899;28;20040;-74
2020/12/04 04:33:26;;;;;;;9.35;5.30;;;-0.50;96.20;;;;;;5033664;28;20029;-74
2020/12/04 04:35:52;;;;;;;8.77;5.10;;;-0.40;97.20;;;;;;5032433;28;20071;-74
2020/12/04 04:38:18;;;;;;;9.32;4.88;;;-0.40;97.50;;;;;;5033465;28;20492;-74
2020/12/04 04:40:43;;;;;;;8.57;4.03;;;-0.30;97.20;;;;;;5015767;28;20393;-74
2020/12/04 04:43:15;;;;;;;9.73;5.25;;;-0.50;98.40;;;;;;5033414;28;20090;-74
2020/12/04 04:45:41;;;;;;;;;;;-0.60;99.90;;;;;;5032944;28;20029;-77
2020/12/04 04:48:17;;;;;;;7.38;3.60;;;-0.70;99.90;;;;;;5048979;28;19954;-74
2020/12/04 04:50:46;;;;;;;12.32;5.57;;;-0.50;99.90;;;;;;5032414;28;20514;-74
2020/12/04 04:53:13;;;;;;;21.25;6.63;;;-0.30;99.90;;;;;;5033350;28;20022;-74
2020/12/04 04:55:42;;;;;;;14.15;6.60;;;-0.50;99.90;;;;;;5033583;28;20021;-74
2020/12/04 04:58:08;;;;;;;12.77;7.22;;;-0.70;99.90;;;;;;5033622;28;20232;-74
2020/12/04 05:00:34;;;;;;;17.42;7.88;;;-0.50;99.90;;;;;;5033575;28;20049;-74
2020/12/04 05:03:00;;;;;;;17.33;7.82;;;-0.20;99.90;;;;;;5033479;28;20103;-74
2020/12/04 05:05:40;;;;;;;13.38;7.07;;;-0.40;99.70;;;;;;5031990;28;20535;-74
2020/12/04 05:08:14;;;;;;;16.38;7.10;;;-0.40;99.90;;;;;;5030950;28;20029;-74
2020/12/04 05:10:40;;;;;;;10.88;6.38;;;-0.20;99.90;;;;;;5032130;28;20033;-74
2020/12/04 05:13:06;;;;;;;12.15;6.70;;;-0.10;99.90;;;;;;5015351;28;20029;-74
2020/12/04 05:15:32;;;;;;;15.98;7.70;;;-0.10;98.80;;;;;;5031758;28;20033;-74
2020/12/04 05:18:03;;;;;;;13.48;7.85;;;0.00;99.20;;;;;;5031997;28;20021;-75
2020/12/04 05:20:29;;;;;;;18.05;8.48;;;0.00;98.10;;;;;;5033202;28;20026;-74
2020/12/04 05:22:56;;;;;;;11.32;5.78;;;-0.10;99.10;;;;;;5015356;28;20029;-74
2020/12/04 05:25:22;;;;;;;10.82;5.55;;;-0.10;99.00;;;;;;5031852;28;20025;-74
2020/12/04 05:27:48;;;;;;;9.95;5.85;;;0.00;98.80;;;;;;5033034;28;20029;-74
2020/12/04 05:30:24;;;;;;;6.45;4.30;;;0.00;99.30;;;;;;5033109;28;20029;-74
2020/12/04 05:35:25;;;;;;;7.53;3.85;;;-0.20;99.90;;;;;;5031838;28;20053;-76
2020/12/04 05:38:05;;;;;;;9.30;4.82;;;-0.10;99.90;;;;;;5052634;28;20017;-77
2020/12/04 05:40:30;;;;;;;5.07;3.45;;;0.00;99.90;;;;;;5018308;28;20025;-77
2020/12/04 05:42:56;;;;;;;9.32;5.05;;;-0.10;99.90;;;;;;5018041;28;20040;-77
2020/12/04 05:45:22;;;;;;;8.32;4.00;;;-0.10;99.90;;;;;;5034814;28;20384;-77
2020/12/04 05:47:48;;;;;;;11.02;4.75;;;0.10;99.90;;;;;;5052366;28;20021;-76
2020/12/04 05:50:14;;;;;;;10.77;4.97;;;0.10;99.90;;;;;;5052084;28;20533;-77
2020/12/04 05:52:40;;;;;;;10.82;4.30;;;0.10;99.90;;;;;;5052550;28;20511;-76
2020/12/04 05:55:08;;;;;;;6.07;3.72;;;0.30;99.90;;;;;;5017969;28;20021;-77
2020/12/04 05:57:54;;;;;;;6.90;3.65;;;0.30;99.90;;;;;;5034524;28;20052;-76
2020/12/04 06:00:21;;;;;;;9.50;3.72;;;0.40;99.90;;;;;;5051258;28;20053;-77
2020/12/04 06:03:07;;;;;;;5.93;3.50;;;0.40;99.90;;;;;;5052222;28;20024;-77
2020/12/04 06:05:33;;;;;;;6.00;3.42;;;0.40;99.90;;;;;;5051440;28;20043;-77
2020/12/04 06:08:03;;;;;;;5.97;3.65;;;0.50;99.90;;;;;;5034142;28;20033;-77
2020/12/04 06:10:30;;;;;;;6.60;3.58;;;0.40;99.90;;;;;;5033880;28;20064;-76
2020/12/04 06:12:56;;;;;;;10.18;3.30;;;0.40;99.90;;;;;;5034090;28;20025;-77
2020/12/04 06:15:27;;;;;;;5.07;3.28;;;0.50;99.90;;;;;;5051539;28;20395;-77
2020/12/04 06:18:06;;;;;;;8.70;4.22;;;0.50;99.90;;;;;;5017133;28;20032;-77
2020/12/04 06:20:41;;;;;;;4.25;2.70;;;0.50;99.90;;;;;;5017112;28;20035;-76
2020/12/04 06:23:15;;;;;;;5.00;2.75;;;0.60;99.90;;;;;;5033744;28;20112;-77
2020/12/04 06:25:50;;;;;;;5.75;2.95;;;0.60;99.90;;;;;;5033484;28;20028;-77
2020/12/04 06:28:17;;;;;;;4.85;2.92;;;0.70;99.90;;;;;;5051789;28;20079;-76
2020/12/04 06:31:00;;;;;;;3.42;2.60;;;0.70;99.90;;;;;;5033519;28;20079;-77
2020/12/04 06:33:46;;;;;;;4.22;2.60;;;0.70;99.90;;;;;;5051383;28;20024;-77
2020/12/04 06:36:33;;;;;;;4.55;3.08;;;0.80;99.90;;;;;;5052456;28;20033;-77
2020/12/04 06:38:59;;;;;;;6.88;3.03;;;0.80;99.90;;;;;;5051631;28;20025;-77
2020/12/04 06:41:34;;;;;;;7.90;4.68;;;0.90;99.80;;;;;;5051622;28;20043;-77
2020/12/04 06:44:02;;;;;;;6.22;3.95;;;0.70;99.90;;;;;;5051747;28;20029;-76
2020/12/04 06:46:44;;;;;;;5.85;3.40;;;0.80;99.90;;;;;;5033300;28;20098;-77
2020/12/04 06:49:22;;;;;;;5.93;3.17;;;0.70;99.90;;;;;;5038563;28;20029;-77
2020/12/04 06:52:01;;;;;;;4.30;3.08;;;0.80;99.90;;;;;;5058267;28;20021;-77
2020/12/04 06:54:29;;;;;;;6.72;3.88;;;0.80;99.90;;;;;;5053180;28;20107;-76
2020/12/04 06:56:55;;;;;;;9.10;5.00;;;0.90;99.90;;;;;;5038810;28;20025;-76
2020/12/04 06:59:36;;;;;;;12.73;7.15;;;0.90;99.90;;;;;;5033504;28;20021;-77
2020/12/04 07:02:09;;;;;;;8.93;4.70;;;1.00;99.20;;;;;;5051775;28;20361;-77
2020/12/04 07:04:37;;;;;;;8.57;4.25;;;1.10;99.60;;;;;;5051142;28;20025;-77
2020/12/04 07:07:05;;;;;;;8.85;3.90;;;1.10;97.50;;;;;;5033128;28;20063;-75
2020/12/04 07:09:31;;;;;;;8.30;3.47;;;1.10;98.00;;;;;;5033352;28;20021;-76
2020/12/04 07:11:58;;;;;;;9.98;3.35;;;1.10;97.90;;;;;;5033151;28;20025;-77
2020/12/04 07:14:24;;;;;;;8.18;3.38;;;1.10;97.50;;;;;;5050850;28;20419;-77
2020/12/04 07:16:51;;;;;;;7.03;3.50;;;1.00;97.90;;;;;;5050825;28;20491;-77
2020/12/04 07:19:17;;;;;;;4.50;2.30;;;0.90;99.00;;;;;;5033400;28;20036;-77
2020/12/04 07:21:43;;;;;;;5.20;2.65;;;0.80;99.80;;;;;;5050614;28;20032;-77
2020/12/04 07:24:08;;;;;;;2.75;2.28;;;0.80;99.90;;;;;;5048676;28;20028;-77
2020/12/04 07:26:34;;;;;;;2.63;2.22;;;0.80;99.90;;;;;;5047802;28;20507;-77
2020/12/04 07:29:00;;;;;;;4.65;2.20;;;1.00;99.90;;;;;;5043556;28;20056;-77
2020/12/04 07:31:26;;;;;;;5.32;2.58;;;1.10;99.90;;;;;;5034875;28;20434;-76
2020/12/04 07:33:57;;;;;;;7.38;4.43;;;1.30;99.90;;;;;;5054142;28;20101;-76
2020/12/04 07:36:28;;;;;;;7.20;4.75;;;1.30;99.60;;;;;;5028261;28;20059;-77
2020/12/04 07:39:02;;;;;;;6.82;4.35;;;1.30;99.90;;;;;;5050257;28;20029;-77
2020/12/04 07:41:39;;;;;;;9.18;5.75;;;1.20;99.90;;;;;;5036986;28;20020;-77
2020/12/04 07:44:10;;;;;;;9.43;4.53;;;1.30;99.70;;;;;;5019834;28;20542;-77
2020/12/04 07:46:36;;;;;;;6.00;3.60;;;1.30;99.90;;;;;;5029089;28;20020;-77
2020/12/04 07:49:08;;;;;;;9.55;6.10;;;1.20;99.90;;;;;;5053584;28;20035;-77
2020/12/04 07:51:37;;;;;;;;;;;1.20;99.90;;;;;;5054067;28;20036;-77
2020/12/04 07:54:21;;;;;;;11.13;5.85;;;1.20;99.90;;;;;;5053347;28;19927;-77
2020/12/04 07:56:53;;;;;;;7.88;4.38;;;1.20;99.90;;;;;;5053696;28;20017;-76
2020/12/04 07:59:25;;;;;;;6.03;3.40;;;1.20;99.90;;;;;;5039256;28;20025;-76
2020/12/04 08:01:51;;;;;;;8.48;4.57;;;1.30;99.90;;;;;;5054100;28;20052;-77
2020/12/04 08:04:18;;;;;;;7.95;4.68;;;1.40;99.90;;;;;;5055678;28;20403;-77
2020/12/04 08:06:47;;;;;;;8.27;4.72;;;1.50;99.90;;;;;;5053481;28;20125;-77
2020/12/04 08:09:16;;;;;;;13.60;6.55;;;1.70;99.90;;;;;;5052704;28;20120;-77
2020/12/04 08:11:53;;;;;;;16.25;5.32;;;1.80;99.90;;;;;;5047213;28;20021;-77
2020/12/04 08:14:28;;;;;;;14.00;7.07;;;1.90;99.90;;;;;;5040459;28;20522;-77
2020/12/04 08:16:59;;;;;;;18.55;8.63;;;1.90;99.90;;;;;;5024908;28;20114;-75
2020/12/04 08:19:27;;;;;;;15.32;8.93;;;1.80;99.90;;;;;;5032315;28;20516;-75
2020/12/04 08:22:05;;;;;;;11.85;7.15;;;1.70;99.90;;;;;;5032313;28;20029;-75
2020/12/04 08:25:01;;;;;;;10.85;5.43;;;1.90;99.90;;;;;;5032663;28;20104;-75
2020/12/04 08:27:27;;;;;;;6.63;4.70;;;1.70;99.90;;;;;;5031436;28;20473;-76
2020/12/04 08:30:06;;;;;;;6.47;4.55;;;1.90;99.90;;;;;;5032676;28;20021;-75
2020/12/04 08:32:31;;;;;;;12.35;7.75;;;1.80;99.90;;;;;;5032185;28;20173;-75
2020/12/04 08:35:28;;;;;;;12.25;5.25;;;1.90;99.90;;;;;;5032404;28;20100;-75
2020/12/04 08:38:03;;;;;;;10.93;5.70;;;1.80;99.90;;;;;;5011530;28;20281;-76
2020/12/04 08:40:31;;;;;;;14.20;7.10;;;1.90;99.90;;;;;;5015931;28;20036;-75
2020/12/04 08:43:23;;;;;;;10.15;6.88;;;1.90;99.90;;;;;;5033724;28;20167;-76
2020/12/04 08:45:54;;;;;;;9.60;7.20;;;1.80;99.90;;;;;;5016598;28;20026;-76
2020/12/04 08:48:22;;;;;;;11.32;6.95;;;1.90;99.90;;;;;;5024672;28;20042;-75
2020/12/04 08:50:50;;;;;;;9.18;6.50;;;1.90;99.90;;;;;;5041709;28;20489;-76
2020/12/04 08:53:18;;;;;;;24.25;11.27;;;2.00;99.90;;;;;;5015572;28;20447;-76
2020/12/04 08:55:55;;;;;;;12.18;7.00;;;2.00;99.90;;;;;;5018674;28;20378;-76
2020/12/04 08:58:22;;;;;;;11.95;7.10;;;2.20;99.90;;;;;;5043267;28;20040;-75
2020/12/04 09:00:50;;;;;;;23.88;8.65;;;2.40;99.90;;;;;;5035917;28;20026;-75
2020/12/04 09:03:16;;;;;;;38.53;10.00;;;2.60;99.90;;;;;;4999390;28;20061;-76
2020/12/04 09:05:42;;;;;;;23.83;10.52;;;2.60;99.90;;;;;;5023043;28;20550;-76
2020/12/04 09:08:08;;;;;;;18.63;9.35;;;2.70;99.90;;;;;;5032331;28;20112;-76
2020/12/04 09:10:34;;;;;;;18.73;6.80;;;2.90;99.90;;;;;;5032241;28;20033;-76
2020/12/04 09:13:01;;;;;;;19.85;8.85;;;2.80;99.90;;;;;;5008663;28;20766;-75
2020/12/04 09:15:27;;;;;;;15.18;8.70;;;2.80;99.90;;;;;;5032156;28;20048;-74
2020/12/04 09:17:54;;;;;;;15.93;8.85;;;2.80;99.90;;;;;;5031571;28;20018;-74
2020/12/04 09:20:20;;;;;;;13.35;7.32;;;2.70;99.90;;;;;;5031668;28;20087;-74
2020/12/04 09:22:46;;;;;;;10.05;5.65;;;2.80;99.90;;;;;;5018976;28;20048;-75
2020/12/04 09:25:14;;;;;;;9.88;6.15;;;2.70;99.90;;;;;;5020716;28;20026;-76
2020/12/04 09:27:41;;;;;;;11.50;5.70;;;2.80;99.90;;;;;;5031694;28;20100;-76
2020/12/04 09:30:09;;;;;;;7.65;4.40;;;2.70;99.90;;;;;;5031896;28;20026;-76
2020/12/04 09:32:35;;;;;;;10.10;3.38;;;2.80;99.90;;;;;;5025748;28;20022;-76
2020/12/04 09:35:01;;;;;;;5.57;3.65;;;2.80;99.90;;;;;;5031373;28;20456;-76
2020/12/04 09:37:32;;;;;;;6.13;3.35;;;2.80;99.90;;;;;;5035330;28;20025;-75
2020/12/04 09:40:04;;;;;;;5.75;3.25;;;2.90;99.90;;;;;;5041318;28;20386;-76
2020/12/04 09:42:30;;;;;;;7.05;3.78;;;2.80;99.90;;;;;;5034168;28;20025;-76
2020/12/04 09:44:56;;;;;;;9.75;4.90;;;2.70;99.90;;;;;;5031838;28;20456;-75
2020/12/04 09:47:23;;;;;;;10.65;6.88;;;2.70;99.90;;;;;;5042200;28;20570;-76
2020/12/04 09:49:50;;;;;;;13.13;7.60;;;2.70;99.90;;;;;;5039796;28;20108;-76
2020/12/04 09:52:18;;;;;;;13.38;6.93;;;2.80;99.90;;;;;;5042550;28;20293;-77
2020/12/04 09:54:46;;;;;;;6.80;4.45;;;3.00;99.90;;;;;;5005539;28;20385;-75
2020/12/04 09:57:13;;;;;;;11.77;5.55;;;3.00;99.90;;;;;;5031736;28;20040;-76
2020/12/04 09:59:39;;;;;;;5.63;3.75;;;3.10;99.90;;;;;;5031492;28;20152;-76
2020/12/04 10:02:07;;;;;;;10.20;5.35;;;3.20;99.90;;;;;;5031445;28;20051;-76
2020/12/04 10:04:33;;;;;;;8.25;4.28;;;3.10;99.90;;;;;;5030241;28;20029;-76
2020/12/04 10:07:00;;;;;;;5.65;4.00;;;3.10;99.90;;;;;;5031551;28;20381;-75
2020/12/04 10:09:27;;;;;;;5.07;3.28;;;3.10;99.90;;;;;;5031405;28;20033;-76
2020/12/04 10:11:53;;;;;;;10.07;4.13;;;3.10;99.90;;;;;;5030981;28;20025;-76
2020/12/04 10:14:20;;;;;;;7.15;3.55;;;3.00;99.90;;;;;;5030861;28;20029;-76
2020/12/04 10:16:47;;;;;;;13.50;6.85;;;3.10;99.90;;;;;;5030900;28;20099;-76
2020/12/04 10:19:16;;;;;;;6.90;4.40;;;3.20;99.90;;;;;;5030739;28;20457;-76
2020/12/04 10:21:42;;;;;;;5.53;3.60;;;3.10;99.90;;;;;;5024905;28;20029;-76
2020/12/04 10:24:08;;;;;;;8.38;2.80;;;3.10;99.90;;;;;;5030939;28;20021;-76
2020/12/04 10:26:49;;;;;;;14.70;3.92;;;3.00;99.90;;;;;;5030843;28;20028;-76
2020/12/04 10:29:17;;;;;;;5.40;3.85;;;3.10;99.90;;;;;;5024783;28;20393;-75
2020/12/04 10:31:43;;;;;;;5.93;3.88;;;3.10;99.90;;;;;;5025913;28;20017;-75
2020/12/04 10:34:09;;;;;;;7.10;4.35;;;3.10;99.90;;;;;;5030520;28;20040;-76
2020/12/04 10:36:36;;;;;;;14.43;5.93;;;3.30;99.90;;;;;;5019249;28;20028;-76
2020/12/04 10:39:04;;;;;;;14.60;7.43;;;3.40;99.90;;;;;;5008750;28;20025;-75
2020/12/04 10:41:31;;;;;;;20.52;10.20;;;3.40;99.90;;;;;;4997580;28;20065;-76
2020/12/04 10:43:57;;;;;;;24.42;10.90;;;3.40;99.90;;;;;;5031682;28;20381;-76
2020/12/04 10:46:23;;;;;;;22.50;9.90;;;3.30;99.90;;;;;;5015678;28;20057;-76
2020/12/04 10:48:49;;;;;;;21.85;9.55;;;3.30;99.90;;;;;;5013878;28;20084;-77
2020/12/04 10:51:19;;;;;;;18.83;9.50;;;3.30;99.90;;;;;;5032726;28;20072;-79
2020/12/04 10:53:44;;;;;;;29.55;14.18;;;3.50;99.90;;;;;;5015574;28;20350;-76
2020/12/04 10:56:10;;;;;;;22.85;11.57;;;3.70;99.90;;;;;;5013923;28;20022;-75
2020/12/04 10:58:36;;;;;;;18.45;9.73;;;4.20;99.90;;;;;;5031853;28;20021;-75
2020/12/04 11:01:02;;;;;;;25.15;11.38;;;5.10;99.90;;;;;;5031271;28;20092;-76
2020/12/04 11:05:25;;;;;;;17.35;9.43;;;6.20;96.10;;;;;;5031890;28;20408;-76
2020/12/04 11:06:18;;;;;;;11.10;5.78;;;7.70;90.90;;;;;;5030089;28;20021;-77
2020/12/04 11:08:46;;;;;;;8.93;5.40;;;9.60;79.80;;;;;;5037692;28;20026;-80
2020/12/04 11:11:20;;;;;;;8.23;3.75;;;10.70;72.20;;;;;;4997628;28;20060;-73
2020/12/04 11:13:48;;;;;;;7.43;3.72;;;11.30;66.30;;;;;;4997430;28;20022;-75
2020/12/04 11:16:15;;;;;;;10.93;4.10;;;11.90;63.00;;;;;;4999264;28;20049;-75
2020/12/04 11:18:41;;;;;;;7.93;4.00;;;11.60;64.00;;;;;;5046385;28;20055;-75
2020/12/04 11:21:08;;;;;;;7.05;2.40;;;11.50;63.80;;;;;;5029237;28;20026;-75
2020/12/04 11:23:34;;;;;;;1.52;1.30;;;11.00;60.00;;;;;;5030695;28;20467;-75
2020/12/04 11:26:00;;;;;;;1.75;1.10;;;11.30;59.50;;;;;;5030746;28;20056;-75
2020/12/04 11:28:25;;;;;;;1.40;0.77;;;11.60;57.80;;;;;;5031430;28;20543;-75
2020/12/04 11:30:51;;;;;;;1.67;0.98;;;11.90;54.20;;;;;;5029519;28;20084;-74
2020/12/04 11:33:17;;;;;;;0.63;0.60;;;12.50;52.90;;;;;;5045847;28;20029;-75
2020/12/04 11:35:43;;;;;;;1.05;0.80;;;12.90;50.90;;;;;;5030984;28;20101;-75
2020/12/04 11:38:09;;;;;;;2.55;0.57;;;13.40;49.80;;;;;;5029640;28;20412;-75
2020/12/04 11:40:38;;;;;;;1.48;0.68;;;13.60;49.40;;;;;;5049803;22;20061;-93
2020/12/04 11:43:21;;;;;;;2.00;0.60;;;14.10;48.80;;;;;;5017877;28;20091;-94
2020/12/04 11:46:09;;;;;;;0.50;0.38;;;14.30;47.40;;;;;;5017558;28;20106;-93
2020/12/04 11:49:07;;;;;;;3.53;0.85;;;14.10;45.60;;;;;;5017533;28;20040;-94
2020/12/04 11:52:05;;;;;;;10.07;0.70;;;14.10;46.30;;;;;;4999112;28;20038;-93
2020/12/04 11:55:03;;;;;;;6.72;0.68;;;13.80;46.50;;;;;;5015640;28;20028;-93
2020/12/04 11:57:57;;;;;;;13.57;0.95;;;13.40;45.10;;;;;;5017613;28;20036;-93
2020/12/04 12:03:56;;;;;;;30.25;2.10;;;12.20;48.80;;;;;;4976532;28;20153;-93
2020/12/04 12:06:32;;;;;;;8.10;1.00;;;11.50;51.00;;;;;;4992141;28;20022;-93
2020/12/04 12:09:06;;;;;;;22.52;1.75;;;11.00;51.10;;;;;;4994727;28;20487;-93
2020/12/04 12:12:32;;;;;;;;;;;;;;;;;;;;;
2020/12/04 12:16:08;;;;;;;;;;;;;;;;;;;;;
2020/12/04 12:19:06;;;;;;;9.05;0.80;;;10.30;52.40;;;;;;5017511;28;20140;-93
2020/12/04 12:21:54;;;;;;;14.75;1.63;;;10.10;52.20;;;;;;5004454;28;20103;-93
2020/12/04 12:27:48;;;;;;;26.50;2.58;;;10.00;52.20;;;;;;5022605;28;19913;-93
2020/12/04 12:34:23;;;;;;;;;;;;;;;;;;;;;
2020/12/04 12:40:18;;;;;;;;;;;;;;;;;;;;;
2020/12/04 12:43:38;;;;;;;;;;;;;;;;;;;;;
2020/12/04 12:46:56;;;;;;;17.17;1.10;;;10.20;50.70;;;;;;5057214;28;20064;-92
2020/12/04 12:53:28;;;;;;;11.65;1.50;;;10.40;51.40;;;;;;5057938;28;20037;-92
2020/12/04 12:56:57;;;;;;;4.13;0.70;;;11.20;50.30;;;;;;5026858;28;20029;-93
2020/12/04 12:59:38;;;;;;;6.38;1.70;;;12.40;47.70;;;;;;5045541;28;20067;-93
2020/12/04 13:02:34;;;;;;;18.70;1.63;;;13.50;45.10;;;;;;5035271;28;20080;-93
2020/12/04 13:05:42;;;;;;;5.47;1.73;;;14.40;43.80;;;;;;5050176;28;20098;-94
2020/12/04 13:08:36;;;;;;;10.30;1.10;;;15.10;42.10;;;;;;5062938;28;20021;-94
2020/12/04 13:11:32;;;;;;;45.78;3.88;;;15.80;41.20;;;;;;5034861;28;20102;-93
2020/12/04 13:14:23;;;;;;;16.48;1.90;;;15.80;40.10;;;;;;5042702;28;20079;-92
2020/12/04 13:17:10;;;;;;;4.43;1.60;;;15.80;39.00;;;;;;5024241;28;20025;-92
2020/12/04 13:19:54;;;;;;;18.40;2.03;;;15.60;40.10;;;;;;5023825;28;20037;-92
2020/12/04 13:26:37;;;;;;;19.20;2.28;;;15.20;40.60;;;;;;5036006;28;20478;-92
2020/12/04 13:29:42;;;;;;;10.93;2.53;;;14.60;42.20;;;;;;5036952;28;20025;-93